createdAt,value
2018-12-15T00:00:49.630Z,50.37
2018-12-15T00:03:17.137Z,49.97
2018-12-15T00:05:44.711Z,49.07
2018-12-15T00:08:12.237Z,47.93
2018-12-15T00:10:39.732Z,47.27
2018-12-15T00:13:07.645Z,53.27
2018-12-15T00:15:35.449Z,46.47
2018-12-15T00:18:02.999Z,53.00
2018-12-15T00:20:30.499Z,49.57
2018-12-15T00:22:58.486Z,42.20
2018-12-15T00:25:25.983Z,50.03
2018-12-15T00:27:53.539Z,51.03
2018-12-15T00:30:21.067Z,49.03
2018-12-15T00:32:48.557Z,50.40
2018-12-15T00:35:16.025Z,47.93
2018-12-15T00:37:43.515Z,53.73
2018-12-15T00:40:10.999Z,44.40
2018-12-15T00:42:38.471Z,49.10
2018-12-15T00:45:06.088Z,48.10
2018-12-15T00:47:33.601Z,49.20
2018-12-15T00:50:01.211Z,45.43
2018-12-15T00:52:28.701Z,45.53
2018-12-15T00:54:56.178Z,49.07
2018-12-15T00:57:23.716Z,53.67
2018-12-15T00:59:51.301Z,43.83
2018-12-15T01:02:18.815Z,48.77
2018-12-15T01:04:46.265Z,48.50
2018-12-15T01:07:14.204Z,48.53
2018-12-15T01:09:41.686Z,48.40
2018-12-15T01:12:09.816Z,49.10
2018-12-15T01:14:37.282Z,46.97
2018-12-15T01:17:04.772Z,44.87
2018-12-15T01:19:32.263Z,49.80
2018-12-15T01:21:59.756Z,50.43
2018-12-15T01:24:27.250Z,49.57
2018-12-15T01:26:55.593Z,47.73
2018-12-15T01:29:23.057Z,47.57
2018-12-15T01:31:50.512Z,49.40
2018-12-15T01:34:18.036Z,49.33
2018-12-15T01:36:46.154Z,50.47
2018-12-15T01:39:13.641Z,47.40
2018-12-15T01:41:41.559Z,48.00
2018-12-15T01:44:09.064Z,48.73
2018-12-15T01:46:36.587Z,56.13
2018-12-15T01:49:04.168Z,49.37
2018-12-15T01:51:31.810Z,46.80
2018-12-15T01:53:59.312Z,50.67
2018-12-15T01:56:27.829Z,55.77
2018-12-15T01:58:55.308Z,51.57
2018-12-15T02:01:22.787Z,52.90
2018-12-15T02:03:50.252Z,53.73
2018-12-15T02:06:18.077Z,54.17
2018-12-15T02:08:45.633Z,54.77
2018-12-15T02:11:13.517Z,51.83
2018-12-15T02:13:41.049Z,52.47
2018-12-15T02:16:08.519Z,54.77
2018-12-15T02:18:35.998Z,59.67
2018-12-15T02:21:03.579Z,51.00
2018-12-15T02:23:31.098Z,51.67
2018-12-15T02:25:58.565Z,48.73
2018-12-15T02:28:26.115Z,55.17
2018-12-15T02:30:53.594Z,58.53
2018-12-15T02:33:21.058Z,62.03
2018-12-15T02:35:48.540Z,59.30
2018-12-15T02:38:16.053Z,52.50
2018-12-15T02:40:43.559Z,55.13
2018-12-15T02:43:11.109Z,60.07
2018-12-15T02:45:39.267Z,56.23
2018-12-15T02:48:06.752Z,54.07
2018-12-15T02:50:34.262Z,57.63
2018-12-15T02:53:01.830Z,60.47
2018-12-15T02:55:29.298Z,55.00
2018-12-15T02:57:57.700Z,59.27
2018-12-15T03:00:25.174Z,56.33
2018-12-15T03:02:52.697Z,61.20
2018-12-15T03:05:20.206Z,54.97
2018-12-15T03:07:47.674Z,55.70
2018-12-15T03:10:15.141Z,61.43
2018-12-15T03:12:42.623Z,63.60
2018-12-15T03:15:10.290Z,54.57
2018-12-15T03:17:37.815Z,55.70
2018-12-15T03:20:05.495Z,61.17
2018-12-15T03:22:32.980Z,58.67
2018-12-15T03:25:00.456Z,57.37
2018-12-15T03:27:28.637Z,67.30
2018-12-15T03:29:56.274Z,56.90
2018-12-15T03:32:23.756Z,64.57
2018-12-15T03:34:51.226Z,55.37
2018-12-15T03:37:18.950Z,63.93
2018-12-15T03:39:46.495Z,57.10
2018-12-15T03:42:14.045Z,65.20
2018-12-15T03:44:41.649Z,66.37
2018-12-15T03:47:09.127Z,67.90
2018-12-15T03:49:36.625Z,57.73
2018-12-15T03:52:04.294Z,58.70
2018-12-15T03:54:31.786Z,51.90
2018-12-15T03:56:59.254Z,58.03
2018-12-15T03:59:27.114Z,52.20
2018-12-15T04:01:54.649Z,57.07
2018-12-15T04:04:22.193Z,49.10
2018-12-15T04:06:49.662Z,47.93
2018-12-15T04:09:17.168Z,48.63
2018-12-15T04:11:44.664Z,53.13
2018-12-15T04:14:12.151Z,47.47
2018-12-15T04:16:39.630Z,49.03
2018-12-15T04:19:07.251Z,52.27
2018-12-15T04:21:35.107Z,42.03
2018-12-15T04:24:02.973Z,45.83
2018-12-15T04:26:30.463Z,47.73
2018-12-15T04:28:58.443Z,47.03
2018-12-15T04:31:25.929Z,45.47
2018-12-15T04:33:53.437Z,45.13
2018-12-15T04:36:21.008Z,43.10
2018-12-15T04:38:48.487Z,46.03
2018-12-15T04:41:16.031Z,47.37
2018-12-15T04:43:43.554Z,43.30
2018-12-15T04:46:12.505Z,44.33
2018-12-15T04:48:40.025Z,45.90
2018-12-15T04:51:07.584Z,45.37
2018-12-15T04:53:35.311Z,44.33
2018-12-15T04:56:02.823Z,44.07
2018-12-15T04:58:30.289Z,42.03
2018-12-15T05:00:57.828Z,47.50
2018-12-15T05:03:25.352Z,41.80
2018-12-15T05:05:52.836Z,40.63
2018-12-15T05:08:20.355Z,44.87
2018-12-15T05:10:47.852Z,46.50
2018-12-15T05:13:15.914Z,44.50
2018-12-15T05:15:43.389Z,44.13
2018-12-15T05:18:18.017Z,44.23
2018-12-15T05:20:41.165Z,43.80
2018-12-15T05:23:08.678Z,41.47
2018-12-15T05:25:36.607Z,41.53
2018-12-15T05:28:04.196Z,42.83
2018-12-15T05:30:31.675Z,39.43
2018-12-15T05:32:59.273Z,38.47
2018-12-15T05:35:26.831Z,37.57
2018-12-15T05:37:54.307Z,38.17
2018-12-15T05:40:22.366Z,36.93
2018-12-15T05:42:49.844Z,37.80
2018-12-15T05:45:19.131Z,36.77
2018-12-15T05:47:46.680Z,38.20
2018-12-15T05:50:14.164Z,34.90
2018-12-15T05:52:41.632Z,37.87
2018-12-15T05:55:09.139Z,40.13
2018-12-15T05:57:36.967Z,34.30
2018-12-15T06:00:08.052Z,33.07
2018-12-15T06:02:35.996Z,32.20
2018-12-15T06:05:04.446Z,33.93
2018-12-15T06:07:32.391Z,34.63
2018-12-15T06:09:59.924Z,32.43
2018-12-15T06:12:27.405Z,31.03
2018-12-15T06:14:54.900Z,33.20
2018-12-15T06:17:22.441Z,37.57
2018-12-15T06:19:49.925Z,36.80
2018-12-15T06:22:17.451Z,32.20
2018-12-15T06:24:44.923Z,31.00
2018-12-15T06:27:12.415Z,30.63
2018-12-15T06:29:39.920Z,30.23
2018-12-15T06:32:07.433Z,30.17
2018-12-15T06:34:34.926Z,26.17
2018-12-15T06:37:02.390Z,26.60
2018-12-15T06:39:29.849Z,28.27
2018-12-15T06:41:57.351Z,28.67
2018-12-15T06:44:24.819Z,27.50
2018-12-15T06:46:52.337Z,30.47
2018-12-15T06:49:19.797Z,29.60
2018-12-15T06:51:48.074Z,29.63
2018-12-15T06:54:15.712Z,27.27
2018-12-15T06:56:44.622Z,32.03
2018-12-15T06:59:12.183Z,26.23
2018-12-15T07:01:42.299Z,29.37
2018-12-15T07:04:10.380Z,28.87
2018-12-15T07:06:39.245Z,30.37
2018-12-15T07:09:07.826Z,26.97
2018-12-15T07:11:36.044Z,28.73
2018-12-15T07:14:03.680Z,33.97
2018-12-15T07:16:31.353Z,28.10
2018-12-15T07:18:59.332Z,28.50
2018-12-15T07:21:26.803Z,26.70
2018-12-15T07:23:59.868Z,29.10
2018-12-15T07:26:27.337Z,30.10
2018-12-15T07:28:54.887Z,29.13
2018-12-15T07:31:22.590Z,28.33
2018-12-15T07:33:50.098Z,30.83
2018-12-15T07:36:17.617Z,33.03
2018-12-15T07:38:45.112Z,30.20
2018-12-15T07:41:12.603Z,28.60
2018-12-15T07:43:40.235Z,29.67
2018-12-15T07:46:07.814Z,27.40
2018-12-15T07:48:35.287Z,28.20
2018-12-15T07:51:02.808Z,29.77
2018-12-15T07:53:30.477Z,28.93
2018-12-15T07:55:57.956Z,26.87
2018-12-15T07:58:25.587Z,29.70
2018-12-15T08:00:53.088Z,28.00
2018-12-15T08:03:21.341Z,25.07
2018-12-15T08:05:48.819Z,26.03
2018-12-15T08:08:21.081Z,26.80
2018-12-15T08:10:54.067Z,26.33
2018-12-15T08:13:24.250Z,25.83
2018-12-15T08:15:51.743Z,24.30
2018-12-15T08:18:19.307Z,26.53
2018-12-15T08:20:46.829Z,28.43
2018-12-15T08:23:19.816Z,24.13
2018-12-15T08:25:47.340Z,25.97
2018-12-15T08:28:15.001Z,22.50
2018-12-15T08:30:42.498Z,24.70
2018-12-15T08:33:10.830Z,26.70
2018-12-15T08:35:38.305Z,24.03
2018-12-15T08:38:05.920Z,22.20
2018-12-15T08:40:33.620Z,22.47
2018-12-15T08:43:01.179Z,23.37
2018-12-15T08:45:28.754Z,19.20
2018-12-15T08:47:56.801Z,23.20
2018-12-15T08:50:24.289Z,22.40
2018-12-15T08:52:52.155Z,21.87
2018-12-15T08:55:19.764Z,18.40
2018-12-15T08:57:47.294Z,21.90
2018-12-15T09:00:14.795Z,24.63
2018-12-15T09:02:42.279Z,25.67
2018-12-15T09:05:09.789Z,28.13
2018-12-15T09:07:37.276Z,24.00
2018-12-15T09:10:07.151Z,24.13
2018-12-15T09:12:34.749Z,29.40
2018-12-15T09:15:02.280Z,23.53
2018-12-15T09:17:29.864Z,25.80
2018-12-15T09:19:57.350Z,25.40
2018-12-15T09:22:32.931Z,25.27
2018-12-15T09:25:00.396Z,29.27
2018-12-15T09:27:27.951Z,27.47
2018-12-15T09:29:55.538Z,31.23
2018-12-15T09:32:23.171Z,32.57
2018-12-15T09:34:52.137Z,31.03
2018-12-15T09:37:19.721Z,26.93
2018-12-15T09:39:47.316Z,27.40
2018-12-15T09:42:14.839Z,32.70
2018-12-15T09:44:42.613Z,28.40
2018-12-15T09:47:10.967Z,29.90
2018-12-15T09:49:38.540Z,32.70
2018-12-15T09:52:06.001Z,29.33
2018-12-15T09:54:36.517Z,33.60
2018-12-15T09:57:04.645Z,29.43
2018-12-15T09:59:32.195Z,31.20
2018-12-15T10:01:59.762Z,32.40
2018-12-15T10:04:27.259Z,29.47
2018-12-15T10:06:54.860Z,36.57
2018-12-15T10:09:22.351Z,32.23
2018-12-15T10:11:49.828Z,33.17
2018-12-15T10:14:17.338Z,34.57
2018-12-15T10:16:45.087Z,34.33
2018-12-15T10:19:12.582Z,41.43
2018-12-15T10:21:40.054Z,35.23
2018-12-15T10:24:07.549Z,39.77
2018-12-15T10:26:35.035Z,36.23
2018-12-15T10:29:03.612Z,35.03
2018-12-15T10:31:36.935Z,37.63
2018-12-15T10:34:04.913Z,40.90
2018-12-15T10:36:32.521Z,39.83
2018-12-15T10:39:00.128Z,39.30
2018-12-15T10:41:27.733Z,35.57
2018-12-15T10:43:55.240Z,41.00
2018-12-15T10:46:22.713Z,36.60
2018-12-15T10:48:50.177Z,39.57
2018-12-15T10:51:17.744Z,34.40
2018-12-15T10:53:45.674Z,37.37
2018-12-15T10:56:13.973Z,37.83
2018-12-15T10:58:41.471Z,37.00
2018-12-15T11:01:23.501Z,35.27
2018-12-15T11:03:51.089Z,32.30
2018-12-15T11:06:18.760Z,37.60
2018-12-15T11:08:46.243Z,38.57
2018-12-15T11:11:13.744Z,36.27
2018-12-15T11:13:41.221Z,37.70
2018-12-15T11:16:08.807Z,35.30
2018-12-15T11:18:36.351Z,31.53
2018-12-15T11:21:03.821Z,36.47
2018-12-15T11:23:31.352Z,34.37
2018-12-15T11:25:58.835Z,31.83
2018-12-15T11:28:26.366Z,32.00
2018-12-15T11:30:53.818Z,32.20
2018-12-15T11:33:21.323Z,33.43
2018-12-15T11:35:48.797Z,27.10
2018-12-15T11:38:16.305Z,27.27
2018-12-15T11:40:43.880Z,26.30
2018-12-15T11:43:11.379Z,29.17
2018-12-15T11:45:38.931Z,28.20
2018-12-15T11:48:06.576Z,27.47
2018-12-15T11:50:34.151Z,27.13
2018-12-15T11:53:01.691Z,29.67
2018-12-15T11:55:29.249Z,30.03
2018-12-15T11:57:56.766Z,33.07
2018-12-15T12:00:24.329Z,33.17
2018-12-15T12:02:51.912Z,33.93
2018-12-15T12:05:19.443Z,28.27
2018-12-15T12:07:47.027Z,35.53
2018-12-15T12:10:14.626Z,33.27
2018-12-15T12:12:42.237Z,30.60
2018-12-15T12:15:09.783Z,34.63
2018-12-15T12:17:37.262Z,31.63
2018-12-15T12:20:06.721Z,31.17
2018-12-15T12:22:34.332Z,25.77
2018-12-15T12:25:01.867Z,29.77
2018-12-15T12:27:29.360Z,29.90
2018-12-15T12:29:56.909Z,25.80
2018-12-15T12:32:24.987Z,27.47
2018-12-15T12:34:53.253Z,25.70
2018-12-15T12:37:20.732Z,25.97
2018-12-15T12:39:48.222Z,27.00
2018-12-15T12:42:15.741Z,27.83
2018-12-15T12:44:43.310Z,28.90
2018-12-15T12:47:10.794Z,26.43
2018-12-15T12:49:38.316Z,26.90
2018-12-15T12:52:05.823Z,24.30
2018-12-15T12:54:33.884Z,25.93
2018-12-15T12:57:01.390Z,25.17
2018-12-15T12:59:29.412Z,29.23
2018-12-15T13:01:57.420Z,26.63
2018-12-15T13:04:24.917Z,27.13
2018-12-15T13:06:54.281Z,26.03
2018-12-15T13:09:21.790Z,25.77
2018-12-15T13:11:49.280Z,27.23
2018-12-15T13:14:16.749Z,23.83
2018-12-15T13:16:44.270Z,29.83
2018-12-15T13:19:11.772Z,30.03
2018-12-15T13:21:39.262Z,29.77
2018-12-15T13:24:06.866Z,31.20
2018-12-15T13:26:34.363Z,30.00
2018-12-15T13:29:02.177Z,31.00
2018-12-15T13:31:29.686Z,27.93
2018-12-15T13:33:57.156Z,31.77
2018-12-15T13:36:24.691Z,30.07
2018-12-15T13:38:52.271Z,29.57
2018-12-15T13:41:20.441Z,29.20
2018-12-15T13:43:47.922Z,27.30
2018-12-15T13:46:15.651Z,27.33
2018-12-15T13:48:43.105Z,26.57
2018-12-15T13:51:10.651Z,28.27
2018-12-15T13:53:38.102Z,25.10
2018-12-15T13:56:06.139Z,25.20
2018-12-15T13:58:33.755Z,23.60
2018-12-15T14:01:02.397Z,26.23
2018-12-15T14:03:29.947Z,27.97
2018-12-15T14:05:57.445Z,27.00
2018-12-15T14:08:25.066Z,27.57
2018-12-15T14:10:52.665Z,24.43
2018-12-15T14:13:20.185Z,27.73
2018-12-15T14:15:47.686Z,26.53
2018-12-15T14:18:15.308Z,25.33
2018-12-15T14:20:43.274Z,24.77
2018-12-15T14:23:10.800Z,27.93
2018-12-15T14:25:39.055Z,25.80
2018-12-15T14:28:06.824Z,24.97
2018-12-15T14:30:34.560Z,28.37
2018-12-15T14:33:03.266Z,26.87
2018-12-15T14:35:31.074Z,29.53
2018-12-15T14:37:58.649Z,31.00
2018-12-15T14:40:26.623Z,28.33
2018-12-15T14:42:54.988Z,30.17
2018-12-15T14:45:22.910Z,32.73
2018-12-15T14:47:52.063Z,34.00
2018-12-15T14:50:23.552Z,37.07
2018-12-15T14:52:50.777Z,37.47
2018-12-15T14:55:19.591Z,39.27
2018-12-15T14:57:47.418Z,42.50
2018-12-15T15:00:15.225Z,39.13
2018-12-15T15:02:43.661Z,42.30
2018-12-15T15:05:12.488Z,37.20
2018-12-15T15:07:44.131Z,39.63
2018-12-15T15:10:12.031Z,50.60
2018-12-15T15:12:39.828Z,41.57
2018-12-15T15:15:07.420Z,39.53
2018-12-15T15:17:35.268Z,43.80
2018-12-15T15:20:05.911Z,39.77
2018-12-15T15:22:34.079Z,40.47
2018-12-15T15:25:01.843Z,41.67
2018-12-15T15:27:46.998Z,40.67
2018-12-15T15:30:14.663Z,35.33
2018-12-15T15:32:42.339Z,39.13
2018-12-15T15:35:11.531Z,39.20
2018-12-15T15:37:39.020Z,39.40
2018-12-15T15:40:07.815Z,35.70
2018-12-15T15:42:36.825Z,37.67
2018-12-15T15:45:05.461Z,35.73
2018-12-15T15:47:33.107Z,36.67
2018-12-15T15:50:02.263Z,37.00
2018-12-15T15:52:29.972Z,38.07
2018-12-15T15:54:57.720Z,34.70
2018-12-15T15:57:25.437Z,32.37
2018-12-15T15:59:53.911Z,36.63
2018-12-15T16:02:21.650Z,32.57
2018-12-15T16:04:49.448Z,34.23
2018-12-15T16:07:17.190Z,32.10
2018-12-15T16:09:45.205Z,34.00
2018-12-15T16:12:13.226Z,32.90
2018-12-15T16:14:41.108Z,30.80
2018-12-15T16:17:08.973Z,31.07
2018-12-15T16:19:36.616Z,31.13
2018-12-15T16:22:05.031Z,31.27
2018-12-15T16:24:33.221Z,30.73
2018-12-15T16:27:01.057Z,30.73
2018-12-15T16:29:28.899Z,31.93
2018-12-15T16:31:56.701Z,30.93
2018-12-15T16:34:25.171Z,33.53
2018-12-15T16:36:53.488Z,36.97
2018-12-15T16:39:21.223Z,33.70
2018-12-15T16:41:49.431Z,33.33
2018-12-15T16:44:17.383Z,35.47
2018-12-15T16:46:45.146Z,36.20
2018-12-15T16:49:12.677Z,32.03
2018-12-15T16:51:40.278Z,36.53
2018-12-15T16:54:08.076Z,36.23
2018-12-15T16:56:36.217Z,40.37
2018-12-15T16:59:05.053Z,35.33
2018-12-15T17:01:34.750Z,35.83
2018-12-15T17:04:02.608Z,36.10
2018-12-15T17:06:31.027Z,35.30
2018-12-15T17:09:00.826Z,36.17
2018-12-15T17:11:28.947Z,36.83
2018-12-15T17:13:57.465Z,36.40
2018-12-15T17:16:25.106Z,40.67
2018-12-15T17:18:52.808Z,39.00
2018-12-15T17:21:20.562Z,34.90
2018-12-15T17:23:49.105Z,38.07
2018-12-15T17:26:16.725Z,36.87
2018-12-15T17:28:44.398Z,38.27
2018-12-15T17:31:12.185Z,35.80
2018-12-15T17:33:39.665Z,38.43
2018-12-15T17:36:07.193Z,36.40
2018-12-15T17:38:34.705Z,31.57
2018-12-15T17:41:02.209Z,33.93
2018-12-15T17:43:29.696Z,34.20
2018-12-15T17:45:58.345Z,34.83
2018-12-15T17:48:26.197Z,33.57
2018-12-15T17:50:54.702Z,35.07
2018-12-15T17:53:22.552Z,33.13
2018-12-15T17:55:50.129Z,32.07
2018-12-15T17:58:19.582Z,32.30
2018-12-15T18:00:48.233Z,34.23
2018-12-15T18:03:16.867Z,35.40
2018-12-15T18:05:44.734Z,36.30
2018-12-15T18:08:12.900Z,35.47
2018-12-15T18:10:41.696Z,38.07
2018-12-15T18:13:09.410Z,38.83
2018-12-15T18:15:37.044Z,35.73
2018-12-15T18:18:04.556Z,36.43
2018-12-15T18:20:32.363Z,42.03
2018-12-15T18:23:00.953Z,38.13
2018-12-15T18:25:28.430Z,37.20
2018-12-15T18:27:56.741Z,35.40
2018-12-15T18:30:24.466Z,35.87
2018-12-15T18:32:52.215Z,39.07
2018-12-15T18:35:19.917Z,35.63
2018-12-15T18:37:48.612Z,33.20
2018-12-15T18:40:16.336Z,33.97
2018-12-15T18:42:44.410Z,35.10
2018-12-15T18:45:12.259Z,32.30
2018-12-15T18:47:40.047Z,32.20
2018-12-15T18:50:08.867Z,33.57
2018-12-15T18:52:37.147Z,29.23
2018-12-15T18:55:06.042Z,31.80
2018-12-15T18:57:34.523Z,32.30
2018-12-15T19:00:02.292Z,30.67
2018-12-15T19:02:29.956Z,33.37
2018-12-15T19:04:57.450Z,31.60
2018-12-15T19:07:25.126Z,31.20
2018-12-15T19:09:52.935Z,31.90
2018-12-15T19:12:20.756Z,31.00
2018-12-15T19:14:48.623Z,27.70
2018-12-15T19:17:16.290Z,32.77
2018-12-15T19:19:43.991Z,34.30
2018-12-15T19:22:11.724Z,31.43
2018-12-15T19:24:40.490Z,34.43
2018-12-15T19:27:09.191Z,31.03
2018-12-15T19:29:38.087Z,37.17
2018-12-15T19:32:05.846Z,34.73
2018-12-15T19:34:33.584Z,35.90
2018-12-15T19:37:02.915Z,35.97
2018-12-15T19:39:30.664Z,32.93
2018-12-15T19:41:58.809Z,30.57
2018-12-15T19:44:28.076Z,35.73
2018-12-15T19:46:56.239Z,36.23
2018-12-15T19:49:25.007Z,39.87
2018-12-15T19:51:52.714Z,36.23
2018-12-15T19:54:20.424Z,33.00
2018-12-15T19:56:48.289Z,33.33
2018-12-15T19:59:17.097Z,33.40
2018-12-15T20:01:45.486Z,30.13
2018-12-15T20:04:13.242Z,32.97
2018-12-15T20:06:40.977Z,34.60
2018-12-15T20:09:08.635Z,36.13
2018-12-15T20:11:37.765Z,30.53
2018-12-15T20:14:05.631Z,35.50
2018-12-15T20:16:33.980Z,35.63
2018-12-15T20:19:02.018Z,35.23
2018-12-15T20:21:35.991Z,35.60
2018-12-15T20:24:02.832Z,36.50
2018-12-15T20:26:30.424Z,33.27
2018-12-15T20:28:58.672Z,33.70
2018-12-15T20:31:26.360Z,34.87
2018-12-15T20:33:54.247Z,28.40
2018-12-15T20:36:21.747Z,28.30
2018-12-15T20:38:49.335Z,27.73
2018-12-15T20:41:17.082Z,25.50
2018-12-15T20:43:45.569Z,25.37
2018-12-15T20:46:14.753Z,24.97
2018-12-15T20:48:42.452Z,27.57
2018-12-15T20:51:11.568Z,28.17
2018-12-15T20:53:39.805Z,31.87
2018-12-15T20:56:07.443Z,40.80
2018-12-15T20:58:37.263Z,45.23
2018-12-15T21:01:05.675Z,42.10
2018-12-15T21:03:33.228Z,37.83
2018-12-15T21:06:01.509Z,48.33
2018-12-15T21:08:28.989Z,46.17
2018-12-15T21:10:56.505Z,40.30
2018-12-15T21:13:23.995Z,50.13
2018-12-15T21:15:53.758Z,47.90
2018-12-15T21:18:22.171Z,45.93
2018-12-15T21:20:49.935Z,45.73
2018-12-15T21:23:18.398Z,44.57
2018-12-15T21:25:45.863Z,44.53
2018-12-15T21:28:14.182Z,46.10
2018-12-15T21:30:41.775Z,43.93
2018-12-15T21:33:09.480Z,44.93
2018-12-15T21:35:37.106Z,45.50
2018-12-15T21:38:04.720Z,42.70
2018-12-15T21:40:32.325Z,42.00
2018-12-15T21:42:59.939Z,42.20
2018-12-15T21:45:28.688Z,45.23
2018-12-15T21:47:57.839Z,43.60
2018-12-15T21:50:25.885Z,42.43
2018-12-15T21:52:55.208Z,49.93
2018-12-15T21:55:25.281Z,45.17
2018-12-15T21:57:58.255Z,42.53
2018-12-15T22:00:26.429Z,46.40
2018-12-15T22:02:54.660Z,43.40
2018-12-15T22:05:22.127Z,39.23
2018-12-15T22:07:50.056Z,45.93
2018-12-15T22:10:17.563Z,45.50
2018-12-15T22:12:45.050Z,46.70
2018-12-15T22:15:12.598Z,49.17
2018-12-15T22:17:40.201Z,47.03
2018-12-15T22:20:09.891Z,49.73
2018-12-15T22:22:37.438Z,45.33
2018-12-15T22:25:05.429Z,46.93
2018-12-15T22:27:32.938Z,44.10
2018-12-15T22:30:01.071Z,51.90
2018-12-15T22:32:28.547Z,46.40
2018-12-15T22:34:56.077Z,49.13
2018-12-15T22:37:23.554Z,52.70
2018-12-15T22:39:51.034Z,50.23
2018-12-15T22:42:18.556Z,47.83
2018-12-15T22:44:46.038Z,48.80
2018-12-15T22:47:13.751Z,50.80
2018-12-15T22:49:41.692Z,50.73
2018-12-15T22:52:09.941Z,51.57
2018-12-15T22:54:37.793Z,51.90
2018-12-15T22:57:05.280Z,50.47
2018-12-15T22:59:32.986Z,46.50
2018-12-15T23:02:00.525Z,44.63
2018-12-15T23:04:28.108Z,36.03
2018-12-15T23:06:55.600Z,35.33
2018-12-15T23:09:23.079Z,36.23
2018-12-15T23:11:50.557Z,37.30
2018-12-15T23:14:18.497Z,43.13
2018-12-15T23:16:46.064Z,37.07
2018-12-15T23:19:13.676Z,38.83
2018-12-15T23:21:41.309Z,40.57
2018-12-15T23:24:08.806Z,40.13
2018-12-15T23:26:36.348Z,39.83
2018-12-15T23:29:04.352Z,46.87
2018-12-15T23:31:31.859Z,39.00
2018-12-15T23:33:59.409Z,38.20
2018-12-15T23:36:26.943Z,38.10
2018-12-15T23:38:54.423Z,38.43
2018-12-15T23:41:21.896Z,35.10
2018-12-15T23:43:49.804Z,44.13
2018-12-15T23:46:17.315Z,39.87
2018-12-15T23:48:44.840Z,39.83
2018-12-15T23:51:12.320Z,38.80
2018-12-15T23:53:39.866Z,40.93
2018-12-15T23:56:07.507Z,38.97
2018-12-15T23:58:35.516Z,39.80
